Terminal Aerodrome Forecast
Issued by NWS

Home | Current Version | Previous Version | Text Only | Print | Product List | Glossary On
Versions: 1 2 3 4 5 6 7 8 9 10 11 12 13 14 15 16 17
000
FTUS43 KJKL 281300 AAB
TAFSJS
TAF AMD
KSJS 281352Z 2814/2912 00000KT 5SM BR OVC004
     FM281430 VRB03KT P6SM SCT004 SCT030
     FM290600 VRB03KT 5SM BR FEW040=

USA.gov is the U.S. government's official web portal to all federal, state and local government web resources and services.